Aérodrome :
LOGIN :

S'inscrire | Disclaimer

   EN    FR    IT 

 










Légende :    VFR   VFR Marginal   IFR   IFR Intensif   IFR Très Intensif
Visi : 
Plafond : 
>= 8 km
>= 3000ft
5 à 8 km
1000 à 3000 ft
1500m à 5 km
500 à 1000 ft
800 à 1500m
200 à 500 ft
< 800m
< 200 ft
Symboles :   Orages  Brouillard  Fortes neiges  Fortes précipitations  Vent > 20 kt
SIGMETs :   Divers  Orages  Givrage  Turbulence  Onde Orograph.  Cendres Volcan.






- Altitude de l'aérodrome : 870 ft
- Code IATA : ETZ


LFJL - Metz Nancy Lorraine

DERNIER METAR :
  • 220100Z AUTO 00000KT 9000 NSC M02/M03 Q1035 NOSIG

METARs EXPIRÉS :
  • 220030Z AUTO 01002KT 7000 NSC M03/M04 Q1036 NOSIG
  • 220000Z AUTO 06005KT CAVOK M02/M03 Q1036 NOSIG
  • 212330Z AUTO 07007KT CAVOK M02/M03 Q1036 NOSIG
  • 212300Z AUTO 07008KT CAVOK M02/M03 Q1036 NOSIG
  • 212230Z AUTO 06004KT CAVOK M01/M03 Q1036 NOSIG

TAF TAF LFJL
Valide du 22 à 00h jusqu'au 23 à 00h UTC


212300Z 2200/2224 04005KT CAVOK



MET'MAP, la Météo Aéronautique d'un coup d'oeil ! - Copyright ORBIFLY Décembre 2007 - Disclaimer

ORBIFLY MET'MAP TEAM :

Programmation & Développement : Alexandra Zaïnal
Sur une idée originale de : Baudouin d'Aumeries
Assistance à la programmation : Marc-Olivier Méhu
Soutien technique & logistique : Manuel Goepfert

Contact : metmap@orbifly.com




SOURCES & CREDITS :

   NOAA